createdAt,value
2022-11-27T00:01:19.914Z,14.97
2022-11-27T00:03:47.746Z,14.00
2022-11-27T00:06:16.907Z,15.67
2022-11-27T00:08:46.033Z,14.47
2022-11-27T00:11:16.713Z,13.93
2022-11-27T00:13:45.061Z,13.40
2022-11-27T00:16:13.774Z,13.37
2022-11-27T00:18:42.460Z,13.80
2022-11-27T00:21:13.735Z,14.30
2022-11-27T00:23:41.913Z,12.83
2022-11-27T00:26:10.869Z,14.60
2022-11-27T00:28:40.220Z,13.90
2022-11-27T00:31:12.139Z,14.67
2022-11-27T00:33:40.072Z,14.77
2022-11-27T00:36:09.800Z,15.87
2022-11-27T00:38:39.359Z,14.80
2022-11-27T00:41:08.391Z,14.83
2022-11-27T00:43:43.518Z,16.07
2022-11-27T00:46:13.900Z,15.53
2022-11-27T00:48:42.071Z,16.10
2022-11-27T00:51:12.504Z,15.80
2022-11-27T00:53:40.493Z,15.87
2022-11-27T00:56:09.200Z,16.03
2022-11-27T00:58:37.089Z,17.03
2022-11-27T01:01:08.816Z,16.17
2022-11-27T01:03:38.053Z,15.27
2022-11-27T01:06:07.313Z,15.47
2022-11-27T01:08:35.802Z,15.83
2022-11-27T01:11:03.890Z,15.40
2022-11-27T01:13:33.459Z,14.83
2022-11-27T01:16:02.383Z,17.27
2022-11-27T01:18:33.887Z,15.10
2022-11-27T01:21:04.135Z,15.37
2022-11-27T01:23:32.381Z,16.30
2022-11-27T01:26:01.759Z,14.80
2022-11-27T01:28:30.252Z,15.63
2022-11-27T01:30:58.071Z,15.30
2022-11-27T01:33:25.941Z,15.73
2022-11-27T01:35:58.408Z,14.63
2022-11-27T01:38:29.248Z,13.87
2022-11-27T01:41:01.212Z,14.07
2022-11-27T01:43:40.824Z,13.67
2022-11-27T01:46:19.260Z,13.60
2022-11-27T01:48:47.996Z,14.13
2022-11-27T01:51:16.075Z,14.53
2022-11-27T01:53:45.799Z,13.77
2022-11-27T01:56:14.367Z,14.13
2022-11-27T01:58:42.887Z,12.83
2022-11-27T02:01:11.475Z,12.50
2022-11-27T02:03:39.297Z,14.03
2022-11-27T02:06:07.515Z,13.13
2022-11-27T02:08:35.347Z,12.53
2022-11-27T02:11:07.995Z,12.03
2022-11-27T02:13:41.517Z,12.17
2022-11-27T02:16:19.271Z,11.97
2022-11-27T02:18:59.956Z,12.77
2022-11-27T02:21:36.324Z,12.90
2022-11-27T02:24:48.443Z,12.77
2022-11-27T02:27:34.289Z,10.67
2022-11-27T02:30:06.410Z,12.77
2022-11-27T02:32:39.533Z,11.07
2022-11-27T02:35:15.885Z,12.20
2022-11-27T02:37:49.147Z,12.57
2022-11-27T02:40:23.090Z,11.23
2022-11-27T02:42:57.032Z,12.10
2022-11-27T02:45:31.807Z,13.23
2022-11-27T02:48:00.892Z,11.87
2022-11-27T02:50:30.958Z,10.67
2022-11-27T02:53:03.112Z,10.93
2022-11-27T02:55:34.315Z,11.97
2022-11-27T02:58:04.688Z,12.50
2022-11-27T03:00:34.905Z,10.90
2022-11-27T03:03:08.560Z,11.73
2022-11-27T03:05:41.310Z,9.77
2022-11-27T03:08:14.681Z,10.97
2022-11-27T03:10:48.947Z,11.23
2022-11-27T03:13:17.093Z,11.13
2022-11-27T03:15:57.621Z,10.50
2022-11-27T03:18:35.672Z,10.73
2022-11-27T03:21:10.896Z,10.17
2022-11-27T03:23:38.951Z,9.40
2022-11-27T03:26:06.910Z,10.83
2022-11-27T03:28:36.096Z,10.00
2022-11-27T03:31:06.017Z,10.00
2022-11-27T03:33:34.329Z,10.63
2022-11-27T03:36:02.413Z,10.57
2022-11-27T03:38:30.536Z,10.77
2022-11-27T03:41:06.071Z,11.13
2022-11-27T03:43:40.216Z,11.13
2022-11-27T03:46:12.157Z,11.83
2022-11-27T03:48:49.023Z,12.10
2022-11-27T03:51:22.153Z,11.17
2022-11-27T03:54:00.121Z,12.60
2022-11-27T03:56:37.520Z,11.20
2022-11-27T03:59:11.654Z,9.53
2022-11-27T04:01:42.079Z,10.13
2022-11-27T04:04:10.520Z,9.10
2022-11-27T04:06:38.361Z,10.03
2022-11-27T04:09:06.393Z,10.60
2022-11-27T04:11:34.253Z,12.57
2022-11-27T04:14:02.314Z,11.10
2022-11-27T04:16:30.148Z,9.70
2022-11-27T04:18:59.356Z,10.37
2022-11-27T04:21:27.174Z,10.47
2022-11-27T04:23:55.049Z,10.20
2022-11-27T04:26:23.463Z,7.87
2022-11-27T04:28:51.601Z,10.17
2022-11-27T04:31:19.648Z,9.33
2022-11-27T04:33:47.502Z,9.83
2022-11-27T04:36:16.678Z,10.20
2022-11-27T04:38:44.478Z,10.67
2022-11-27T04:41:12.201Z,10.37
2022-11-27T04:43:40.055Z,9.07
2022-11-27T04:46:08.436Z,9.07
2022-11-27T04:48:36.244Z,10.50
2022-11-27T04:51:04.087Z,9.27
2022-11-27T04:53:33.546Z,7.93
2022-11-27T04:56:01.354Z,7.53
2022-11-27T04:58:29.154Z,8.53
2022-11-27T05:00:57.030Z,8.10
2022-11-27T05:03:25.113Z,8.97
2022-11-27T05:05:57.531Z,8.33
2022-11-27T05:08:26.045Z,8.00
2022-11-27T05:11:02.478Z,9.27
2022-11-27T05:13:30.348Z,10.30
2022-11-27T05:15:58.655Z,9.27
2022-11-27T05:18:26.480Z,10.40
2022-11-27T05:20:58.770Z,10.60
2022-11-27T05:23:27.005Z,10.70
2022-11-27T05:25:54.869Z,11.20
2022-11-27T05:28:27.056Z,10.93
2022-11-27T05:30:55.543Z,9.63
2022-11-27T05:33:25.130Z,7.97
2022-11-27T05:35:53.120Z,9.67
2022-11-27T05:38:21.332Z,10.90
2022-11-27T05:40:49.745Z,11.07
2022-11-27T05:43:18.591Z,11.33
2022-11-27T05:45:49.281Z,11.30
2022-11-27T05:48:17.251Z,10.90
2022-11-27T05:50:45.171Z,11.63
2022-11-27T05:53:13.326Z,13.07
2022-11-27T05:55:41.573Z,12.70
2022-11-27T05:58:09.346Z,11.97
2022-11-27T06:00:37.202Z,11.67
2022-11-27T06:03:06.642Z,12.27
2022-11-27T06:05:34.466Z,12.03
2022-11-27T06:08:02.302Z,13.07
2022-11-27T06:10:30.061Z,11.43
2022-11-27T06:12:57.983Z,10.87
2022-11-27T06:15:25.995Z,11.00
2022-11-27T06:17:54.141Z,11.17
2022-11-27T06:20:23.823Z,12.33
2022-11-27T06:22:51.678Z,11.27
2022-11-27T06:25:19.608Z,11.90
2022-11-27T06:27:47.327Z,11.80
2022-11-27T06:30:15.633Z,12.23
2022-11-27T06:32:43.436Z,12.60
2022-11-27T06:35:11.227Z,11.63
2022-11-27T06:37:40.456Z,12.00
2022-11-27T06:40:09.551Z,12.40
2022-11-27T06:42:37.248Z,12.40
2022-11-27T06:45:05.683Z,11.87
2022-11-27T06:47:35.809Z,11.70
2022-11-27T06:50:06.704Z,12.63
2022-11-27T06:52:39.964Z,12.33
2022-11-27T06:55:10.189Z,13.83
2022-11-27T06:57:37.991Z,12.97
2022-11-27T07:00:07.410Z,12.90
2022-11-27T07:02:37.634Z,12.13
2022-11-27T07:05:06.095Z,11.23
2022-11-27T07:07:33.914Z,13.30
2022-11-27T07:10:01.836Z,13.93
2022-11-27T07:12:31.328Z,14.53
2022-11-27T07:15:03.910Z,13.70
2022-11-27T07:17:32.139Z,14.00
2022-11-27T07:20:00.075Z,13.30
2022-11-27T07:22:28.308Z,13.70
2022-11-27T07:24:56.411Z,14.50
2022-11-27T07:27:24.316Z,14.17
2022-11-27T07:29:53.478Z,14.47
2022-11-27T07:32:21.282Z,15.13
2022-11-27T07:34:49.129Z,14.30
2022-11-27T07:37:17.326Z,18.03
2022-11-27T07:40:02.071Z,16.23
2022-11-27T07:42:39.005Z,14.13
2022-11-27T07:45:09.756Z,14.17
2022-11-27T07:47:37.745Z,14.30
2022-11-27T07:50:08.226Z,15.07
2022-11-27T07:52:41.005Z,14.97
2022-11-27T07:55:10.304Z,14.00
2022-11-27T07:57:38.215Z,15.07
2022-11-27T08:00:09.117Z,15.30
2022-11-27T08:02:37.093Z,14.73
2022-11-27T08:05:10.939Z,13.60
2022-11-27T08:07:40.540Z,14.77
2022-11-27T08:10:09.732Z,15.03
2022-11-27T08:12:37.549Z,14.33
2022-11-27T08:15:06.170Z,14.30
2022-11-27T08:17:35.517Z,14.10
2022-11-27T08:20:06.405Z,15.33
2022-11-27T08:22:34.356Z,14.70
2022-11-27T08:25:02.442Z,14.80
2022-11-27T08:27:32.343Z,15.60
2022-11-27T08:30:01.229Z,14.87
2022-11-27T08:32:29.005Z,16.00
2022-11-27T08:34:58.500Z,16.00
2022-11-27T08:37:31.585Z,14.33
2022-11-27T08:39:59.463Z,13.13
2022-11-27T08:42:27.237Z,14.00
2022-11-27T08:44:55.444Z,13.33
2022-11-27T08:47:23.270Z,13.30
2022-11-27T08:49:54.720Z,14.67
2022-11-27T08:52:40.030Z,13.77
2022-11-27T08:55:09.349Z,14.00
2022-11-27T08:57:37.232Z,13.43
2022-11-27T09:00:09.647Z,12.67
2022-11-27T09:02:37.353Z,13.77
2022-11-27T09:05:06.317Z,14.17
2022-11-27T09:07:38.862Z,13.70
2022-11-27T09:10:09.228Z,12.70
2022-11-27T09:12:41.924Z,12.20
2022-11-27T09:15:12.177Z,12.80
2022-11-27T09:17:40.377Z,11.57
2022-11-27T09:20:10.269Z,11.70
2022-11-27T09:22:39.511Z,11.83
2022-11-27T09:25:07.609Z,11.07
2022-11-27T09:27:35.421Z,12.30
2022-11-27T09:30:03.474Z,13.43
2022-11-27T09:32:31.207Z,13.47
2022-11-27T09:34:59.208Z,12.03
2022-11-27T09:37:27.094Z,11.10
2022-11-27T09:39:56.337Z,12.37
2022-11-27T09:42:37.664Z,11.77
2022-11-27T09:45:09.252Z,12.50
2022-11-27T09:47:42.258Z,10.03
2022-11-27T09:50:15.804Z,11.27
2022-11-27T09:52:47.394Z,10.40
2022-11-27T09:55:22.459Z,10.93
2022-11-27T09:57:57.478Z,11.07
2022-11-27T10:00:25.384Z,10.77
2022-11-27T10:02:53.791Z,10.00
2022-11-27T10:05:24.492Z,10.40
2022-11-27T10:08:09.416Z,9.37
2022-11-27T10:10:46.735Z,9.33
2022-11-27T10:13:31.816Z,9.37
2022-11-27T10:16:04.867Z,9.10
2022-11-27T10:18:40.833Z,9.13
2022-11-27T10:21:16.287Z,9.87
2022-11-27T10:23:51.795Z,9.67
2022-11-27T10:26:24.960Z,7.80
2022-11-27T10:28:59.706Z,8.33
2022-11-27T10:31:36.609Z,7.63
2022-11-27T10:34:07.901Z,7.63
2022-11-27T10:36:40.301Z,7.57
2022-11-27T10:39:15.939Z,8.43
2022-11-27T10:41:53.332Z,8.23
2022-11-27T10:44:30.489Z,7.33
2022-11-27T10:47:02.545Z,7.53
2022-11-27T10:49:30.837Z,7.40
2022-11-27T10:51:58.630Z,7.20
2022-11-27T10:54:32.140Z,6.73
2022-11-27T10:57:23.114Z,6.30
2022-11-27T11:00:07.443Z,6.60
2022-11-27T11:02:38.657Z,6.93
2022-11-27T11:08:19.327Z,6.97
2022-11-27T11:10:52.616Z,8.03
2022-11-27T11:13:23.507Z,6.93
2022-11-27T11:15:59.891Z,7.43
2022-11-27T11:18:29.675Z,7.47
2022-11-27T11:20:59.547Z,6.17
2022-11-27T11:23:33.736Z,6.20
2022-11-27T11:26:05.960Z,6.20
2022-11-27T11:28:39.716Z,6.07
2022-11-27T11:31:10.852Z,6.17
2022-11-27T11:33:48.447Z,5.80
2022-11-27T11:36:16.735Z,5.97
2022-11-27T11:38:48.061Z,5.77
2022-11-27T11:41:18.266Z,6.23
2022-11-27T11:44:00.017Z,6.43
2022-11-27T11:46:29.983Z,6.00
2022-11-27T11:49:01.437Z,5.83
2022-11-27T11:51:51.018Z,5.60
2022-11-27T11:54:32.500Z,6.20
2022-11-27T11:57:03.365Z,6.50
2022-11-27T11:59:45.134Z,6.10
2022-11-27T12:02:38.992Z,6.57
2022-11-27T12:05:38.345Z,6.10
2022-11-27T12:08:26.003Z,6.27
2022-11-27T12:11:02.396Z,6.50
2022-11-27T12:13:43.529Z,6.97
2022-11-27T12:16:22.915Z,6.33
2022-11-27T12:19:04.164Z,6.70
2022-11-27T12:21:43.971Z,5.57
2022-11-27T12:24:26.949Z,5.80
2022-11-27T12:27:04.805Z,5.90
2022-11-27T12:29:54.892Z,5.43
2022-11-27T12:32:38.501Z,6.13
2022-11-27T12:35:27.993Z,7.60
2022-11-27T12:38:07.017Z,8.23
2022-11-27T12:40:45.643Z,6.33
2022-11-27T12:43:24.266Z,5.70
2022-11-27T12:45:58.664Z,5.80
2022-11-27T12:48:30.897Z,6.20
2022-11-27T12:51:03.535Z,6.23
2022-11-27T12:53:38.238Z,7.33
2022-11-27T12:56:10.768Z,6.57
2022-11-27T13:01:37.716Z,6.13
2022-11-27T13:04:19.082Z,6.63
2022-11-27T13:06:54.423Z,6.03
2022-11-27T13:09:32.990Z,5.77
2022-11-27T13:12:02.772Z,5.73
2022-11-27T13:14:33.079Z,6.17
2022-11-27T13:17:05.399Z,6.70
2022-11-27T13:19:39.725Z,5.77
2022-11-27T13:22:11.990Z,6.47
2022-11-27T13:24:40.024Z,6.57
2022-11-27T13:27:11.613Z,6.50
2022-11-27T13:29:44.548Z,6.20
2022-11-27T13:32:22.085Z,6.53
2022-11-27T13:34:52.865Z,6.43
2022-11-27T13:37:29.223Z,6.50
2022-11-27T13:40:04.004Z,6.03
2022-11-27T13:42:33.964Z,6.93
2022-11-27T13:45:05.753Z,6.93
2022-11-27T13:47:40.076Z,6.23
2022-11-27T13:50:11.695Z,6.80
2022-11-27T13:52:50.743Z,6.73
2022-11-27T13:55:26.065Z,6.63
2022-11-27T13:57:54.631Z,6.33
2022-11-27T14:00:34.798Z,6.30
2022-11-27T14:03:02.597Z,5.97
2022-11-27T14:05:41.732Z,6.27
2022-11-27T14:08:22.514Z,6.63
2022-11-27T14:10:54.144Z,6.97
2022-11-27T14:13:27.372Z,6.57
2022-11-27T14:16:01.832Z,7.20
2022-11-27T14:18:31.452Z,7.10
2022-11-27T14:21:02.916Z,6.80
2022-11-27T14:23:33.469Z,6.53
2022-11-27T14:26:11.915Z,6.83
2022-11-27T14:28:44.461Z,6.93
2022-11-27T14:31:26.691Z,6.93
2022-11-27T14:36:43.617Z,6.57
2022-11-27T14:39:22.521Z,6.63
2022-11-27T14:41:57.638Z,7.30
2022-11-27T14:44:25.600Z,7.10
2022-11-27T14:46:53.991Z,8.33
2022-11-27T14:49:23.158Z,8.17
2022-11-27T14:51:53.628Z,8.40
2022-11-27T14:54:26.857Z,8.00
2022-11-27T14:56:55.267Z,7.83
2022-11-27T14:59:25.163Z,8.30
2022-11-27T15:02:01.284Z,8.30
2022-11-27T15:04:30.651Z,9.07
2022-11-27T15:07:00.710Z,8.43
2022-11-27T15:09:32.354Z,8.47
2022-11-27T15:12:06.848Z,8.40
2022-11-27T15:14:34.589Z,8.77
2022-11-27T15:17:02.551Z,9.47
2022-11-27T15:19:35.868Z,9.30
2022-11-27T15:22:05.701Z,9.43
2022-11-27T15:24:36.769Z,9.07
2022-11-27T15:27:19.556Z,9.67
2022-11-27T15:30:03.942Z,8.60
2022-11-27T15:32:51.171Z,8.50
2022-11-27T15:35:28.015Z,9.83
2022-11-27T15:38:04.186Z,9.47
2022-11-27T15:40:35.910Z,10.03
2022-11-27T15:43:04.144Z,9.47
2022-11-27T15:45:33.695Z,10.20
2022-11-27T15:48:02.698Z,10.13
2022-11-27T15:50:31.291Z,11.13
2022-11-27T15:53:01.781Z,10.03
2022-11-27T15:55:29.674Z,9.57
2022-11-27T15:57:57.725Z,9.00
2022-11-27T16:00:25.963Z,10.43
2022-11-27T16:02:53.901Z,10.20
2022-11-27T16:05:22.105Z,10.03
2022-11-27T16:07:54.686Z,10.07
2022-11-27T16:10:25.881Z,10.90
2022-11-27T16:12:55.244Z,10.43
2022-11-27T16:15:25.053Z,10.90
2022-11-27T16:17:55.476Z,11.30
2022-11-27T16:20:23.209Z,9.43
2022-11-27T16:22:50.868Z,9.63
2022-11-27T16:25:19.349Z,9.73
2022-11-27T16:27:48.599Z,10.03
2022-11-27T16:30:19.849Z,9.87
2022-11-27T16:32:47.592Z,10.67
2022-11-27T16:35:15.252Z,9.57
2022-11-27T16:37:43.079Z,10.43
2022-11-27T16:40:11.763Z,9.43
2022-11-27T16:42:39.749Z,10.10
2022-11-27T16:45:10.120Z,11.17
2022-11-27T16:47:37.828Z,10.80
2022-11-27T16:50:06.755Z,11.43
2022-11-27T16:52:34.570Z,10.50
2022-11-27T16:55:02.745Z,9.67
2022-11-27T16:57:30.815Z,10.47
2022-11-27T16:59:58.647Z,11.43
2022-11-27T17:02:28.974Z,9.87
2022-11-27T17:04:57.106Z,9.93
2022-11-27T17:07:24.982Z,9.80
2022-11-27T17:09:52.781Z,9.97
2022-11-27T17:12:20.572Z,10.47
2022-11-27T17:14:50.995Z,9.87
2022-11-27T17:17:18.757Z,10.20
2022-11-27T17:19:49.349Z,8.80
2022-11-27T17:22:17.185Z,10.10
2022-11-27T17:24:45.009Z,9.87
2022-11-27T17:27:14.688Z,10.37
2022-11-27T17:29:43.132Z,9.70
2022-11-27T17:32:12.875Z,9.97
2022-11-27T17:34:40.736Z,10.00
2022-11-27T17:37:09.994Z,9.87
2022-11-27T17:39:37.777Z,9.87
2022-11-27T17:42:09.984Z,9.90
2022-11-27T17:44:40.686Z,9.87
2022-11-27T17:47:08.534Z,10.00
2022-11-27T17:49:36.332Z,10.30
2022-11-27T17:52:06.511Z,10.77
2022-11-27T17:54:36.153Z,10.60
2022-11-27T17:57:03.839Z,10.87
2022-11-27T17:59:31.682Z,9.30
2022-11-27T18:01:59.801Z,10.43
2022-11-27T18:04:30.728Z,11.27
2022-11-27T18:06:58.728Z,10.87
2022-11-27T18:09:26.678Z,9.80
2022-11-27T18:11:57.194Z,9.93
2022-11-27T18:14:25.165Z,10.33
2022-11-27T18:16:52.951Z,10.17
2022-11-27T18:19:21.372Z,11.20
2022-11-27T18:21:49.144Z,10.27
2022-11-27T18:24:25.299Z,11.20
2022-11-27T18:27:11.087Z,9.70
2022-11-27T18:29:40.721Z,9.30
2022-11-27T18:32:09.381Z,10.37
2022-11-27T18:34:37.375Z,9.90
2022-11-27T18:37:05.452Z,11.17
2022-11-27T18:39:33.782Z,9.40
2022-11-27T18:42:04.864Z,9.27
2022-11-27T18:44:33.092Z,9.77
2022-11-27T18:47:00.981Z,10.03
2022-11-27T18:49:28.857Z,9.73
2022-11-27T18:51:56.854Z,9.27
2022-11-27T18:54:25.474Z,10.23
2022-11-27T18:56:53.249Z,9.80
2022-11-27T18:59:22.362Z,10.00
2022-11-27T19:01:50.271Z,9.23
2022-11-27T19:04:18.609Z,9.90
2022-11-27T19:06:46.475Z,10.07
2022-11-27T19:09:14.824Z,10.00
2022-11-27T19:11:43.141Z,9.10
2022-11-27T19:14:11.472Z,9.77
2022-11-27T19:16:45.849Z,10.43
2022-11-27T19:19:52.706Z,9.47
2022-11-27T19:22:04.182Z,9.10
2022-11-27T19:24:31.853Z,9.20
2022-11-27T19:26:59.575Z,10.20
2022-11-27T19:29:27.319Z,10.50
2022-11-27T19:31:58.821Z,9.60
2022-11-27T19:34:27.282Z,9.20
2022-11-27T19:36:55.855Z,9.10
2022-11-27T19:39:23.665Z,9.57
2022-11-27T19:41:52.093Z,9.57
2022-11-27T19:44:19.833Z,9.30
2022-11-27T19:46:47.842Z,8.67
2022-11-27T19:49:18.829Z,8.87
2022-11-27T19:51:47.036Z,8.80
2022-11-27T19:54:16.691Z,8.53
2022-11-27T19:56:44.947Z,8.10
2022-11-27T19:59:13.613Z,8.97
2022-11-27T20:01:41.892Z,9.40
2022-11-27T20:04:11.971Z,9.10
2022-11-27T20:06:41.256Z,9.23
2022-11-27T20:09:09.633Z,8.00
2022-11-27T20:11:37.828Z,9.03
2022-11-27T20:14:06.801Z,9.70
2022-11-27T20:16:36.103Z,9.90
2022-11-27T20:19:06.124Z,9.57
2022-11-27T20:21:33.899Z,9.60
2022-11-27T20:24:03.839Z,8.70
2022-11-27T20:26:31.834Z,10.10
2022-11-27T20:29:02.110Z,9.27
2022-11-27T20:31:32.105Z,9.87
2022-11-27T20:34:01.753Z,8.37
2022-11-27T20:36:30.853Z,10.10
2022-11-27T20:39:00.259Z,9.00
2022-11-27T20:41:29.373Z,8.30
2022-11-27T20:43:58.969Z,9.10
2022-11-27T20:46:27.962Z,9.50
2022-11-27T20:48:56.526Z,9.23
2022-11-27T20:51:28.470Z,9.63
2022-11-27T20:53:58.252Z,9.13
2022-11-27T20:56:26.463Z,9.37
2022-11-27T20:58:56.336Z,8.87
2022-11-27T21:01:26.280Z,9.07
2022-11-27T21:03:55.883Z,9.50
2022-11-27T21:06:26.006Z,8.87
2022-11-27T21:08:54.446Z,9.83
2022-11-27T21:11:25.244Z,9.17
2022-11-27T21:13:55.912Z,9.13
2022-11-27T21:16:25.206Z,9.03
2022-11-27T21:18:53.858Z,9.37
2022-11-27T21:21:22.016Z,9.17
2022-11-27T21:23:49.890Z,8.90
2022-11-27T21:26:18.254Z,9.20
2022-11-27T21:28:46.592Z,9.37
2022-11-27T21:31:18.976Z,9.47
2022-11-27T21:33:48.330Z,9.50
2022-11-27T21:36:16.552Z,8.63
2022-11-27T21:38:44.501Z,9.17
2022-11-27T21:41:13.965Z,9.53
2022-11-27T21:43:42.036Z,9.63
2022-11-27T21:46:12.615Z,9.50
2022-11-27T21:48:42.349Z,9.33
2022-11-27T21:51:12.638Z,9.43
2022-11-27T21:53:41.582Z,9.30
2022-11-27T21:56:10.845Z,9.77
2022-11-27T21:58:39.055Z,10.27
2022-11-27T22:01:10.012Z,10.40
2022-11-27T22:03:42.327Z,10.27
2022-11-27T22:06:15.162Z,10.27
2022-11-27T22:08:44.900Z,11.00
2022-11-27T22:11:14.936Z,9.93
2022-11-27T22:13:43.261Z,10.70
2022-11-27T22:16:12.282Z,10.17
2022-11-27T22:18:40.571Z,10.10
2022-11-27T22:21:09.279Z,10.27
2022-11-27T22:23:39.591Z,10.23
2022-11-27T22:26:09.617Z,9.97
2022-11-27T22:28:37.923Z,9.30
2022-11-27T22:31:09.598Z,10.83
2022-11-27T22:33:37.492Z,10.37
2022-11-27T22:36:13.306Z,10.33
2022-11-27T22:38:42.492Z,10.47
2022-11-27T22:41:11.079Z,11.27
2022-11-27T22:43:39.906Z,10.93
2022-11-27T22:46:10.363Z,10.30
2022-11-27T22:48:38.272Z,10.83
2022-11-27T22:51:06.101Z,11.40
2022-11-27T22:53:34.235Z,10.77
2022-11-27T22:56:07.256Z,11.50
2022-11-27T22:58:40.937Z,10.87
2022-11-27T23:01:11.157Z,10.40
2022-11-27T23:03:40.181Z,11.70
2022-11-27T23:06:11.972Z,11.43
2022-11-27T23:08:40.358Z,11.20
2022-11-27T23:11:10.135Z,10.77
2022-11-27T23:13:38.531Z,12.50
2022-11-27T23:16:08.767Z,11.70
2022-11-27T23:18:38.359Z,11.80
2022-11-27T23:21:07.454Z,12.57
2022-11-27T23:23:35.222Z,12.80
2022-11-27T23:26:06.183Z,11.77
2022-11-27T23:28:36.509Z,11.63
2022-11-27T23:31:28.207Z,11.73
2022-11-27T23:33:53.350Z,11.43
2022-11-27T23:36:21.094Z,12.53
2022-11-27T23:38:49.123Z,12.50
2022-11-27T23:41:19.216Z,12.17
2022-11-27T23:43:49.025Z,11.93
2022-11-27T23:46:18.704Z,12.87
2022-11-27T23:48:46.995Z,11.87
2022-11-27T23:51:16.533Z,12.23
2022-11-27T23:53:44.658Z,12.70
2022-11-27T23:56:14.284Z,12.07
2022-11-27T23:58:46.637Z,11.67
